This is the latest recevied weather packets stored in our database for station/object KI6SYE. If no packets are shown the sender has not sent any weather packets the latest 10 day(s).
| Time | Temp. | Humidity | Pressure | Rain* | Wind** | Luminosity | Snow |
|---|---|---|---|---|---|---|---|
| 1777925501 | 17.78° C | 77% | 1016 hPa | 0 mm | - | 620 W/m² | - |
| 1777925197 | 17.78° C | 76% | 1015.8 hPa | 0 mm | - | 439 W/m² | - |
| 1777924894 | 17.78° C | 76% | 1015.9 hPa | 0 mm | - | 564 W/m² | - |
| 1777924590 | 17.78° C | 76% | 1016 hPa | 0 mm | - | 699 W/m² | - |
| 1777924286 | 17.78° C | 77% | 1016.2 hPa | 0 mm | - | 720 W/m² | - |
| 1777923983 | 17.78° C | 76% | 1016 hPa | 0 mm | - | 579 W/m² | - |
| 1777923679 | 17.78° C | 75% | 1016 hPa | 0 mm | - | 872 W/m² | - |
| 1777923375 | 17.22° C | 77% | 1016 hPa | 0 mm | - | 839 W/m² | - |
| 1777923074 | 17.78° C | 75% | 1016.2 hPa | 0 mm | - | 436 W/m² | - |
| 1777922772 | 17.78° C | 74% | 1016.1 hPa | 0 mm | - | 850 W/m² | - |
| 1777922470 | 17.78° C | 76% | 1016.1 hPa | 0 mm | - | 853 W/m² | - |
| 1777922168 | 18.33° C | 72% | 1016.2 hPa | 0 mm | - | 819 W/m² | - |
| 1777921864 | 17.22° C | 75% | 1016 hPa | 0 mm | - | 817 W/m² | - |
| 1777921560 | 17.78° C | 73% | 1016 hPa | 0 mm | - | 832 W/m² | - |
| 1777921256 | 17.78° C | 74% | 1015.9 hPa | 0 mm | - | 913 W/m² | - |
| 1777920953 | 17.22° C | 75% | 1016 hPa | 0 mm | - | 764 W/m² | - |
| 1777920650 | 17.78° C | 72% | 1016.1 hPa | 0 mm | - | 711 W/m² | - |
| 1777920345 | 17.78° C | 72% | 1016.1 hPa | 0 mm | - | 832 W/m² | - |
| 1777920040 | 17.22° C | 74% | 1016.2 hPa | 0 mm | - | 468 W/m² | - |
| 1777919738 | 17.78° C | 74% | 1016.2 hPa | 0 mm | - | 427 W/m² | - |
| 1777919436 | 18.33° C | 73% | 1016.1 hPa | 0 mm | - | 719 W/m² | - |
| 1777919132 | 18.33° C | 73% | 1016.1 hPa | 0 mm | - | 739 W/m² | - |
| 1777918830 | 17.78° C | 74% | 1016.1 hPa | 0 mm | - | 814 W/m² | - |
| 1777918527 | 17.78° C | 73% | 1016.2 hPa | 0 mm | - | 838 W/m² | - |
| 1777918226 | 17.22° C | 76% | 1016.3 hPa | 0 mm | - | 795 W/m² | - |
* Rain latest hour (hover to see other rain measurements)
** Current wind speed in m/s (hover to see current wind gust speed)